Map

Track Data

SID SEASON NUMBER BASIN SUBBASIN NAME ISO_TIME NATURE LAT LON WMO_WIND WMO_PRES WMO_AGENCY TRACK_TYPE DIST2LAND LANDFALL IFLAG USA_AGENCY USA_ATCF_ID USA_LAT USA_LON USA_RECORD USA_STATUS USA_WIND USA_PRES USA_SSHS USA_R34_NE USA_R34_SE USA_R34_SW USA_R34_NW USA_R50_NE USA_R50_SE USA_R50_SW USA_R50_NW USA_R64_NE USA_R64_SE USA_R64_SW USA_R64_NW USA_POCI USA_ROCI USA_RMW USA_EYE TOKYO_LAT TOKYO_LON TOKYO_GRADE TOKYO_WIND TOKYO_PRES TOKYO_R50_DIR TOKYO_R50_LONG TOKYO_R50_SHORT TOKYO_R30_DIR TOKYO_R30_LONG TOKYO_R30_SHORT TOKYO_LAND CMA_LAT CMA_LON CMA_CAT CMA_WIND CMA_PRES HKO_LAT HKO_LON HKO_CAT HKO_WIND HKO_PRES NEWDELHI_LAT NEWDELHI_LON NEWDELHI_GRADE NEWDELHI_WIND NEWDELHI_PRES NEWDELHI_CI NEWDELHI_DP NEWDELHI_POCI REUNION_LAT REUNION_LON REUNION_TYPE REUNION_WIND REUNION_PRES REUNION_TNUM REUNION_CI REUNION_RMW REUNION_R34_NE REUNION_R34_SE REUNION_R34_SW REUNION_R34_NW REUNION_R50_NE REUNION_R50_SE REUNION_R50_SW REUNION_R50_NW REUNION_R64_NE REUNION_R64_SE REUNION_R64_SW REUNION_R64_NW BOM_LAT BOM_LON BOM_TYPE BOM_WIND BOM_PRES BOM_TNUM BOM_CI BOM_RMW BOM_R34_NE BOM_R34_SE BOM_R34_SW BOM_R34_NW BOM_R50_NE BOM_R50_SE BOM_R50_SW BOM_R50_NW BOM_R64_NE BOM_R64_SE BOM_R64_SW BOM_R64_NW BOM_ROCI BOM_POCI BOM_EYE BOM_POS_METHOD BOM_PRES_METHOD NADI_LAT NADI_LON NADI_CAT NADI_WIND NADI_PRES WELLINGTON_LAT WELLINGTON_LON WELLINGTON_WIND WELLINGTON_PRES DS824_LAT DS824_LON DS824_STAGE DS824_WIND DS824_PRES TD9636_LAT TD9636_LON TD9636_STAGE TD9636_WIND TD9636_PRES TD9635_LAT TD9635_LON TD9635_WIND TD9635_PRES TD9635_ROCI NEUMANN_LAT NEUMANN_LON NEUMANN_CLASS NEUMANN_WIND NEUMANN_PRES MLC_LAT MLC_LON MLC_CLASS MLC_WIND MLC_PRES USA_GUST BOM_GUST BOM_GUST_PER REUNION_GUST REUNION_GUST_PER USA_SEAHGT USA_SEARAD_NE USA_SEARAD_SE USA_SEARAD_SW USA_SEARAD_NW STORM_SPEED STORM_DIR
1973200N21088 1973 69 NI BB NOT_NAMED 1973-07-19 00:00:00 TS 20.9000 88.2000 main 78 55 O________OO___ jtwc_io IO061973 20.9000 88.2000 -1 20.9000 88.2000 TC 25 20.9000 88.2000 1 5 353
1973200N21088 1973 69 NI BB NOT_NAMED 1973-07-19 03:00:00 TS 21.1514 88.1519 main 44 24 P________PP___ IO061973 21.1575 88.1575 -1 21.1575 88.1575 TC 25 21.1391 88.1406 1 5 348
1973200N21088 1973 69 NI BB NOT_NAMED 1973-07-19 06:00:00 TS 21.3909 88.0917 main 24 15 O________OP___ jtwc_io IO061973 21.4000 88.1000 -1 21.4000 88.1000 TC 25 21.3726 88.0750 1 5 344
1973200N21088 1973 69 NI BB NOT_NAMED 1973-07-19 09:00:00 TS 21.6083 88.0089 main 20 0 P________PP___ IO061973 21.6150 88.0150 -1 21.6150 88.0150 TC 30 21.5948 87.9968 1 4 337
1973200N21088 1973 69 NI BB NOT_NAMED 1973-07-19 12:00:00 TS 21.8000 87.9000 main 0 0 O________OO___ jtwc_io IO061973 21.8000 87.9000 -1 21.8000 87.9000 TC 35 21.8000 87.9000 2 4 328
1973200N21088 1973 69 NI BB NOT_NAMED 1973-07-19 15:00:00 TS 21.9707 87.7694 main 0 0 P________PP___ IO061973 21.9650 87.7650 -1 21.9650 87.7650 TC 35 21.9820 87.7783 2 4 319
1973200N21088 1973 69 NI BB NOT_NAMED 1973-07-19 18:00:00 TS 22.1107 87.6084 main 0 0 O________OP___ jtwc_io IO061973 22.1000 87.6000 -1 22.1000 87.6000 TC 35 22.1322 87.6253 2 4 309
1973200N21088 1973 69 NI BB NOT_NAMED 1973-07-19 21:00:00 TS 22.2337 87.4216 main 0 0 P________PP___ IO061973 22.2300 87.4151 -1 22.2300 87.4151 TC 35 22.2413 87.4346 2 4 297
1973200N21088 1973 69 NI BB NOT_NAMED 1973-07-20 00:00:00 TS 22.3000 87.2000 main 0 0 O________OO___ jtwc_io IO061973 22.3000 87.2000 -1 22.3000 87.2000 TC 35 22.3000 87.2000 2 4 275
1973200N21088 1973 69 NI BB NOT_NAMED 1973-07-20 03:00:00 TS 22.2705 86.9806 main 0 0 P________PP___ IO061973 22.2724 86.9799 -1 22.2724 86.9799 TC 30 22.2667 86.9819 2 5 257
1973200N21088 1973 69 NI BB NOT_NAMED 1973-07-20 06:00:00 TS 22.1969 86.7043 main 0 0 O________OP___ jtwc_io IO061973 22.2000 86.7000 -1 22.2000 86.7000 TC 25 22.1906 86.7131 2 6 256
1973200N21088 1973 69 NI BB NOT_NAMED 1973-07-20 09:00:00 TS 22.1245 86.3657 main 0 0 P________PP___ IO061973 22.1271 86.3672 -1 22.1271 86.3672 TC 25 22.1193 86.3628 2 8 263
1973200N21088 1973 69 NI BB NOT_NAMED 1973-07-20 12:00:00 TS 22.1000 85.9000 main 0 0 O________OO___ jtwc_io IO061973 22.1000 85.9000 -1 22.1000 85.9000 TC 25 22.1000 85.9000 1 10 272
1973200N21088 1973 69 NI BB NOT_NAMED 1973-07-20 15:00:00 TS 22.1637 85.2569 main 0 0 P________PP___ IO061973 22.1626 85.2524 -1 22.1626 85.2524 TC 25 22.1658 85.2657 1 13 279
1973200N21088 1973 69 NI BB NOT_NAMED 1973-07-20 18:00:00 TS 22.2967 84.5083 main 0 0 O________OP___ jtwc_io IO061973 22.3000 84.5000 -1 22.3000 84.5000 TC 25 22.2900 84.5249 1 14 282
1973200N21088 1973 69 NI BB NOT_NAMED 1973-07-20 21:00:00 TS 22.4647 83.7388 main 0 0 P________PP___ IO061973 22.4625 83.7348 -1 22.4625 83.7348 TC 25 22.4689 83.7466 1 15 286
1973200N21088 1973 69 NI BB NOT_NAMED 1973-07-21 00:00:00 TS 22.7000 83.0000 main 0 0 O________OO___ jtwc_io IO061973 22.7000 83.0000 -1 22.7000 83.0000 TC 25 22.7000 83.0000 1 14 294
1973200N21088 1973 69 NI BB NOT_NAMED 1973-07-21 03:00:00 TS 23.0225 82.3622 main 0 0 P________PP___ IO061973 23.0346 82.3700 -1 23.0346 82.3700 TC 25 22.9984 82.3466 1 13 301
1973200N21088 1973 69 NI BB NOT_NAMED 1973-07-21 06:00:00 TS 23.3806 81.7798 main 0 0 O________OP___ jtwc_io IO061973 23.4000 81.8000 -1 23.4000 81.8000 TC 25 23.3418 81.7394 1 13 303
1973200N21088 1973 69 NI BB NOT_NAMED 1973-07-21 09:00:00 TS 23.7114 81.2090 main 0 0 P________PP___ IO061973 23.7224 81.2199 -1 23.7224 81.2199 TC 25 23.6894 81.1872 1 12 302
1973200N21088 1973 69 NI BB NOT_NAMED 1973-07-21 12:00:00 TS 24.0000 80.7000 main 0 0 O________OO___ jtwc_io IO061973 24.0000 80.7000 -1 24.0000 80.7000 TC 25 24.0000 80.7000 1 10 301
1973200N21088 1973 69 NI BB NOT_NAMED 1973-07-21 15:00:00 TS 24.2233 80.2614 main 0 0 P________PP___ IO061973 24.2223 80.2622 -1 24.2223 80.2622 TC 25 24.2254 80.2598 1 8 299
1973200N21088 1973 69 NI BB NOT_NAMED 1973-07-21 18:00:00 TS 24.4030 79.8954 main 0 0 O________OP___ jtwc_io IO061973 24.4000 79.9000 -1 24.4000 79.9000 TC 25 24.4090 79.8862 1 7 298
1973200N21088 1973 69 NI BB NOT_NAMED 1973-07-21 21:00:00 TS 24.5593 79.5747 main 0 0 P________PP___ IO061973 24.5574 79.5773 -1 24.5574 79.5773 TC 25 24.5632 79.5695 1 6 299
1973200N21088 1973 69 NI BB NOT_NAMED 1973-07-22 00:00:00 TS 24.7000 79.3000 main 0 0 O________OO___ jtwc_io IO061973 24.7000 79.3000 -1 24.7000 79.3000 TC 25 24.7000 79.3000 1 6 301
1973200N21088 1973 69 NI BB NOT_NAMED 1973-07-22 03:00:00 TS 24.8482 79.0409 main 0 0 P________PP___ IO061973 24.8575 79.0275 -1 24.8575 79.0275 TC 25 24.8297 79.0677 1 5 303
1973200N21088 1973 69 NI BB NOT_NAMED 1973-07-22 06:00:00 TS 24.9851 78.8210 main 0 0 O________OP___ jtwc_io IO061973 25.0000 78.8000 -1 25.0000 78.8000 TC 25 24.9554 78.8631 1 4 305
1973200N21088 1973 69 NI BB NOT_NAMED 1973-07-22 09:00:00 TS 25.0995 78.6473 main 0 0 P________PP___ IO061973 25.1100 78.6325 -1 25.1100 78.6325 TC 25 25.0784 78.6770 1 4 307
1973200N21088 1973 69 NI BB NOT_NAMED 1973-07-22 12:00:00 TS 25.2000 78.5000 main 0 O________OO___ jtwc_io IO061973 25.2000 78.5000 -1 25.2000 78.5000 TC 25 25.2000 78.5000 6 3 308

About IBTrACS Database

This database is a web-friendly format of International Best Track Archive for Climate Stewardship (IBTrACS), a global best track data archive curated by NOAA dating back to 1842.

Updated: 2021-11-26